Time;durP1;ratioP1;P1;durP2;ratioP2;P2;SDS_P1;SDS_P2;PMS_P1;PMS_P2;Temp;Humidity;BMP_temperature;BMP_pressure;BME280_temperature;BME280_humidity;BME280_pressure;Samples;Min_cycle;Max_cycle;Signal;HPM_P1;HPM_P2
2023/10/08 00:00:46;;;;;;;;;;;;;;;;;;5052051;28;20319;-73
2023/10/08 00:03:13;;;;;;;;;;;;;;;;;;5050634;28;19989;-74
2023/10/08 00:05:39;;;;;;;;;;;;;;;;;;5052038;28;20113;-73
2023/10/08 00:08:06;;;;;;;;;;;;;;;;;;5051946;28;19986;-73
2023/10/08 00:10:34;;;;;;;;;;;;;;;;;;5051983;28;20001;-72
2023/10/08 00:13:00;;;;;;;;;;;;;;;;;;5051848;28;19986;-74
2023/10/08 00:15:26;;;;;;;;;;;;;;;;;;5051798;28;20435;-74
2023/10/08 00:17:55;;;;;;;;;;;;;;;;;;5051788;28;19982;-74
2023/10/08 00:20:25;;;;;;;;;;;;;;;;;;5051904;28;19985;-73
2023/10/08 00:22:54;;;;;;;;;;;;;;;;;;5051800;28;19992;-74
2023/10/08 00:25:21;;;;;;;;;;;;;;;;;;5051603;28;19993;-73
2023/10/08 00:27:50;;;;;;;;;;;;;;;;;;5051814;28;20044;-73
2023/10/08 00:30:19;;;;;;;;;;;;;;;;;;5051560;28;20561;-74
2023/10/08 00:32:46;;;;;;;;;;;;;;;;;;5051857;28;19996;-74
2023/10/08 00:35:15;;;;;;;;;;;;;;;;;;5051565;28;20485;-73
2023/10/08 00:37:41;;;;;;;;;;;;;;;;;;5051598;28;20069;-74
2023/10/08 00:40:21;;;;;;;;;;;;;;;;;;5051552;28;20104;-74
2023/10/08 00:42:47;;;;;;;;;;;;;;;;;;5051744;28;19996;-74
2023/10/08 00:45:19;;;;;;;;;;;;;;;;;;5051425;28;20021;-74
2023/10/08 00:47:46;;;;;;;;;;;;;;;;;;5051333;28;20481;-73
2023/10/08 00:50:42;;;;;;;;;;;;;;;;;;5051555;28;20029;-74
2023/10/08 00:53:00;;;;;;;;;;;;;;;;;;5051409;28;19986;-74
2023/10/08 00:55:29;;;;;;;;;;;;;;;;;;5053171;28;19982;-75
2023/10/08 00:57:57;;;;;;;;;;;;;;;;;;5055601;28;19993;-74
2023/10/08 01:00:31;;;;;;;;;;;;;;;;;;5055757;28;20339;-75
2023/10/08 01:03:00;;;;;;;;;;;;;;;;;;5055558;28;20043;-73
2023/10/08 01:08:12;;;;;;;;;;;;;;;;;;5055545;28;20039;-74
2023/10/08 01:10:40;;;;;;;;;;;;;;;;;;5054194;28;20009;-73
2023/10/08 01:13:13;;;;;;;;;;;;;;;;;;5055494;28;19993;-74
2023/10/08 01:15:41;;;;;;;;;;;;;;;;;;5055106;28;20343;-74
2023/10/08 01:18:14;;;;;;;;;;;;;;;;;;5053862;28;20036;-73
2023/10/08 01:20:50;;;;;;;;;;;;;;;;;;5053985;28;19992;-74
2023/10/08 01:23:20;;;;;;;;;;;;;;;;;;5054142;28;20032;-74
2023/10/08 01:25:57;;;;;;;;;;;;;;;;;;5054065;28;19985;-74
2023/10/08 01:28:28;;;;;;;;;;;;;;;;;;5055367;28;19982;-73
2023/10/08 01:30:55;;;;;;;;;;;;;;;;;;5055253;28;20014;-74
2023/10/08 01:33:22;;;;;;;;;;;;;;;;;;5055043;28;20058;-74
2023/10/08 01:35:50;;;;;;;;;;;;;;;;;;5054769;28;20039;-74
2023/10/08 01:38:23;;;;;;;;;;;;;;;;;;5055061;28;19982;-73
2023/10/08 01:40:50;;;;;;;;;;;;;;;;;;5054904;28;20017;-75
2023/10/08 01:43:17;;;;;;;;;;;;;;;;;;5055020;28;20017;-74
2023/10/08 01:45:44;;;;;;;;;;;;;;;;;;5054548;28;20022;-75
2023/10/08 01:48:10;;;;;;;;;;;;;;;;;;5054501;28;20438;-73
2023/10/08 01:50:36;;;;;;;;;;;;;;;;;;5054599;28;20096;-73
2023/10/08 01:53:02;;;;;;;;;;;;;;;;;;5054614;28;20140;-74
2023/10/08 01:55:33;;;;;;;;;;;;;;;;;;5054614;28;20507;-74
2023/10/08 01:57:59;;;;;;;;;;;;;;;;;;5054473;28;19989;-73
2023/10/08 02:00:26;;;;;;;;;;;;;;;;;;5054424;28;20083;-74
2023/10/08 02:02:53;;;;;;;;;;;;;;;;;;5054459;28;19990;-74
2023/10/08 02:05:19;;;;;;;;;;;;;;;;;;5054300;28;20023;-73
2023/10/08 02:07:45;;;;;;;;;;;;;;;;;;5053388;28;20394;-73
2023/10/08 02:10:11;;;;;;;;;;;;;;;;;;5054404;28;20016;-73
2023/10/08 02:12:37;;;;;;;;;;;;;;;;;;5052779;28;19996;-73
2023/10/08 02:15:04;;;;;;;;;;;;;;;;;;5054227;28;20025;-73
2023/10/08 02:17:30;;;;;;;;;;;;;;;;;;5054035;28;20028;-73
2023/10/08 02:19:55;;;;;;;;;;;;;;;;;;5054217;28;19982;-73
2023/10/08 02:22:22;;;;;;;;;;;;;;;;;;5053961;28;19989;-72
2023/10/08 02:24:50;;;;;;;;;;;;;;;;;;5053937;28;20008;-73
2023/10/08 02:27:16;;;;;;;;;;;;;;;;;;5054115;28;19986;-73
2023/10/08 02:29:42;;;;;;;;;;;;;;;;;;5054084;28;19992;-73
2023/10/08 02:32:08;;;;;;;;;;;;;;;;;;5053732;28;20009;-73
2023/10/08 02:34:35;;;;;;;;;;;;;;;;;;5053788;28;19989;-73
2023/10/08 02:37:03;;;;;;;;;;;;;;;;;;5053616;28;20040;-73
2023/10/08 02:39:30;;;;;;;;;;;;;;;;;;5053980;28;19997;-73
2023/10/08 02:41:59;;;;;;;;;;;;;;;;;;5053618;28;20084;-73
2023/10/08 02:44:25;;;;;;;;;;;;;;;;;;5053524;28;20021;-72
2023/10/08 02:46:51;;;;;;;;;;;;;;;;;;5053612;28;20009;-73
2023/10/08 02:49:20;;;;;;;;;;;;;;;;;;5053693;28;19986;-73
2023/10/08 02:51:46;;;;;;;;;;;;;;;;;;5053677;28;20114;-73
2023/10/08 02:54:18;;;;;;;;;;;;;;;;;;5053505;28;20384;-74
2023/10/08 02:56:44;;;;;;;;;;;;;;;;;;5053690;28;20033;-73
2023/10/08 02:59:12;;;;;;;;;;;;;;;;;;5053493;28;20141;-74
2023/10/08 03:01:39;;;;;;;;;;;;;;;;;;5053448;28;19985;-73
2023/10/08 03:04:14;;;;;;;;;;;;;;;;;;5053310;28;20450;-73
2023/10/08 03:06:41;;;;;;;;;;;;;;;;;;5053303;28;20377;-73
2023/10/08 03:09:09;;;;;;;;;;;;;;;;;;5053156;28;19985;-73
2023/10/08 03:11:37;;;;;;;;;;;;;;;;;;5053115;28;20013;-74
2023/10/08 03:14:03;;;;;;;;;;;;;;;;;;5053194;28;19992;-73
2023/10/08 03:16:34;;;;;;;;;;;;;;;;;;5052973;28;19982;-73
2023/10/08 03:19:00;;;;;;;;;;;;;;;;;;5053324;28;19996;-74
2023/10/08 03:24:23;;;;;;;;;;;;;;;;;;5053282;28;20007;-75
2023/10/08 03:26:55;;;;;;;;;;;;;;;;;;5051679;28;20454;-75
2023/10/08 03:29:21;;;;;;;;;;;;;;;;;;5053066;28;20029;-73
2023/10/08 03:34:14;;;;;;;;;;;;;;;;;;5052960;28;19982;-72
2023/10/08 03:36:46;;;;;;;;;;;;;;;;;;5052640;28;20346;-73
2023/10/08 03:39:15;;;;;;;;;;;;;;;;;;5052577;28;20331;-73
2023/10/08 03:41:41;;;;;;;;;;;;;;;;;;5052846;28;19997;-73
2023/10/08 03:44:13;;;;;;;;;;;;;;;;;;5052527;28;20488;-73
2023/10/08 03:46:42;;;;;;;;;;;;;;;;;;5052169;28;20021;-73
2023/10/08 03:49:15;;;;;;;;;;;;;;;;;;5052158;28;19989;-73
2023/10/08 03:51:41;;;;;;;;;;;;;;;;;;5052072;28;20009;-74
2023/10/08 03:56:36;;;;;;;;;;;;;;;;;;5052514;28;20084;-73
2023/10/08 03:59:12;;;;;;;;;;;;;;;;;;5052127;28;19989;-73
2023/10/08 04:01:39;;;;;;;;;;;;;;;;;;5051989;28;20366;-73
2023/10/08 04:04:05;;;;;;;;;;;;;;;;;;5052201;28;19985;-74
2023/10/08 04:06:38;;;;;;;;;;;;;;;;;;5051999;28;20001;-72
2023/10/08 04:11:41;;;;;;;;;;;;;;;;;;5052118;28;20112;-72
2023/10/08 04:14:08;;;;;;;;;;;;;;;;;;5051950;28;19992;-72
2023/10/08 04:16:37;;;;;;;;;;;;;;;;;;5051756;28;20033;-71
2023/10/08 04:19:03;;;;;;;;;;;;;;;;;;5051742;28;19985;-73
2023/10/08 04:21:29;;;;;;;;;;;;;;;;;;5050583;28;20013;-72
2023/10/08 04:23:57;;;;;;;;;;;;;;;;;;5051933;28;19990;-73
2023/10/08 04:26:26;;;;;;;;;;;;;;;;;;5051793;28;19986;-73
2023/10/08 04:28:54;;;;;;;;;;;;;;;;;;5051791;28;20029;-74
2023/10/08 04:31:24;;;;;;;;;;;;;;;;;;5051244;28;20009;-73
2023/10/08 04:33:50;;;;;;;;;;;;;;;;;;5051438;28;20072;-73
2023/10/08 04:36:19;;;;;;;;;;;;;;;;;;5051744;28;20081;-73
2023/10/08 04:38:48;;;;;;;;;;;;;;;;;;5051786;28;19990;-73
2023/10/08 04:41:17;;;;;;;;;;;;;;;;;;5051634;28;20029;-73
2023/10/08 04:43:43;;;;;;;;;;;;;;;;;;5051540;28;19986;-73
2023/10/08 04:48:53;;;;;;;;;;;;;;;;;;5051555;28;20031;-74
2023/10/08 04:51:21;;;;;;;;;;;;;;;;;;5051419;28;20057;-72
2023/10/08 04:53:48;;;;;;;;;;;;;;;;;;5050034;28;20047;-73
2023/10/08 04:56:16;;;;;;;;;;;;;;;;;;5051343;28;19989;-73
2023/10/08 04:58:46;;;;;;;;;;;;;;;;;;5050190;28;20361;-75
2023/10/08 05:01:18;;;;;;;;;;;;;;;;;;5051406;28;20507;-73
2023/10/08 05:03:56;;;;;;;;;;;;;;;;;;5051319;28;19982;-74
2023/10/08 05:06:49;;;;;;;;;;;;;;;;;;5049816;28;20599;-74
2023/10/08 05:11:46;;;;;;;;;;;;;;;;;;5051372;28;20065;-73
2023/10/08 05:25:53;;;;;;;;;;;;;;;;;;5051350;28;20025;-72
2023/10/08 05:27:49;;;;;;;;;;;;;;;;;;5050532;28;20031;-74
2023/10/08 05:30:16;;;;;;;;;;;;;;;;;;5051390;28;20083;-73
2023/10/08 05:35:38;;;;;;;;;;;;;;;;;;5051154;28;20036;-74
2023/10/08 05:38:13;;;;;;;;;;;;;;;;;;5051089;28;19986;-74
2023/10/08 05:43:37;;;;;;;;;;;;;;;;;;5053911;28;19982;-73
2023/10/08 05:49:01;;;;;;;;;;;;;;;;;;5054815;28;20319;-73
2023/10/08 05:54:35;;;;;;;;;;;;;;;;;;5054573;28;20029;-72
2023/10/08 05:59:52;;;;;;;;;;;;;;;;;;5054649;28;20035;-73
2023/10/08 06:13:02;;;;;;;;;;;;;;;;;;5054424;28;19982;-72
2023/10/08 06:15:44;;;;;;;;;;;;;;;;;;5054075;28;20025;-75
2023/10/08 06:18:10;;;;;;;;;;;;;;;;;;5054334;28;19995;-77
2023/10/08 06:20:39;;;;;;;;;;;;;;;;;;5054634;28;20009;-81
2023/10/08 06:23:07;;;;;;;;;;;;;;;;;;5054445;28;20141;-81
2023/10/08 06:25:33;;;;;;;;;;;;;;;;;;5054192;28;20486;-78
2023/10/08 06:27:59;;;;;;;;;;;;;;;;;;5054138;28;20055;-78
2023/10/08 06:30:29;;;;;;;;;;;;;;;;;;5054319;28;20076;-77
2023/10/08 06:32:55;;;;;;;;;;;;;;;;;;5054013;28;19990;-77
2023/10/08 06:35:25;;;;;;;;;;;;;;;;;;5053991;28;20449;-78
2023/10/08 06:37:54;;;;;;;;;;;;;;;;;;5053714;28;20762;-77
2023/10/08 06:43:27;;;;;;;;;;;;;;;;;;5052127;28;20076;-77
2023/10/08 06:45:55;;;;;;;;;;;;;;;;;;5053402;28;20018;-78
2023/10/08 06:48:21;;;;;;;;;;;;;;;;;;5053485;28;19986;-77
2023/10/08 06:50:47;;;;;;;;;;;;;;;;;;5053654;28;20048;-77
2023/10/08 06:53:14;;;;;;;;;;;;;;;;;;5053112;28;20211;-80
2023/10/08 06:55:40;;;;;;;;;;;;;;;;;;5050782;28;20036;-78
2023/10/08 06:58:08;;;;;;;;;;;;;;;;;;5052056;28;19993;-79
2023/10/08 07:00:40;;;;;;;;;;;;;;;;;;5051994;28;20001;-79
2023/10/08 07:03:07;;;;;;;;;;;;;;;;;;5032949;28;19997;-79
2023/10/08 07:05:39;;;;;;;;;;;;;;;;;;5047725;28;20006;-78
2023/10/08 07:08:06;;;;;;;;;;;;;;;;;;5036939;28;20361;-76
2023/10/08 07:10:34;;;;;;;;;;;;;;;;;;5038883;28;20009;-77
2023/10/08 07:13:00;;;;;;;;;;;;;;;;;;5043230;28;19993;-74
2023/10/08 07:15:26;;;;;;;;;;;;;;;;;;5037515;28;19982;-75
2023/10/08 07:17:52;;;;;;;;;;;;;;;;;;5047070;28;19997;-77
2023/10/08 07:20:21;;;;;;;;;;;;;;;;;;5033848;28;19986;-74
2023/10/08 07:22:53;;;;;;;;;;;;;;;;;;5041767;28;20465;-72
2023/10/08 07:25:21;;;;;;;;;;;;;;;;;;5039044;28;20083;-73
2023/10/08 07:27:47;;;;;;;;;;;;;;;;;;5032658;28;19989;-71
2023/10/08 07:30:13;;;;;;;;;;;;;;;;;;5031088;28;19986;-73
2023/10/08 07:32:39;;;;;;;;;;;;;;;;;;5052432;28;20056;-77
2023/10/08 07:37:47;;;;;;;;;;;;;;;;;;5052859;28;20072;-74
2023/10/08 07:40:13;;;;;;;;;;;;;;;;;;5052667;28;19985;-74
2023/10/08 07:42:39;;;;;;;;;;;;;;;;;;5051377;28;20471;-74
2023/10/08 07:45:05;;;;;;;;;;;;;;;;;;5050747;28;20029;-75
2023/10/08 07:47:30;;;;;;;;;;;;;;;;;;5036624;28;20040;-75
2023/10/08 07:49:58;;;;;;;;;;;;;;;;;;5046852;28;19985;-77
2023/10/08 07:52:24;;;;;;;;;;;;;;;;;;5043596;28;20108;-78
2023/10/08 07:54:50;;;;;;;;;;;;;;;;;;5051042;28;19986;-75
2023/10/08 07:57:25;;;;;;;;;;;;;;;;;;5052317;28;19985;-70
2023/10/08 07:59:54;;;;;;;;;;;;;;;;;;5033480;28;20438;-73
2023/10/08 08:02:23;;;;;;;;;;;;;;;;;;5050205;28;20362;-72
2023/10/08 08:04:50;;;;;;;;;;;;;;;;;;5051621;28;20311;-72
2023/10/08 08:07:16;;;;;;;;;;;;;;;;;;5052325;28;19982;-77
2023/10/08 08:09:48;;;;;;;;;;;;;;;;;;5046647;28;20387;-76
2023/10/08 08:12:14;;;;;;;;;;;;;;;;;;5031893;28;20607;-75
2023/10/08 08:14:41;;;;;;;;;;;;;;;;;;5032332;28;19989;-75
2023/10/08 08:17:13;;;;;;;;;;;;;;;;;;5032903;28;20009;-74
2023/10/08 08:19:39;;;;;;;;;;;;;;;;;;5031951;28;19994;-74
2023/10/08 08:22:05;;;;;;;;;;;;;;;;;;5031970;28;19990;-76
2023/10/08 08:24:34;;;;;;;;;;;;;;;;;;5032864;28;20064;-77
2023/10/08 08:27:23;;;;;;;;;;;;;;;;;;5040242;28;20080;-74
2023/10/08 08:29:49;;;;;;;;;;;;;;;;;;5050468;28;20484;-72
2023/10/08 08:32:16;;;;;;;;;;;;;;;;;;5034706;28;20014;-75
2023/10/08 08:34:43;;;;;;;;;;;;;;;;;;5032533;28;20355;-76
2023/10/08 08:37:09;;;;;;;;;;;;;;;;;;5031727;28;19988;-74
2023/10/08 08:39:36;;;;;;;;;;;;;;;;;;5032538;28;19997;-72
2023/10/08 08:42:02;;;;;;;;;;;;;;;;;;5032199;28;20008;-74
2023/10/08 08:44:31;;;;;;;;;;;;;;;;;;5045334;28;20358;-70
2023/10/08 08:46:58;;;;;;;;;;;;;;;;;;5054337;28;20000;-70
2023/10/08 08:49:24;;;;;;;;;;;;;;;;;;5050880;28;19994;-68
2023/10/08 08:51:53;;;;;;;;;;;;;;;;;;5045268;28;20431;-69
2023/10/08 08:54:20;;;;;;;;;;;;;;;;;;5060958;28;20072;-69
2023/10/08 08:56:46;;;;;;;;;;;;;;;;;;5047553;28;19990;-69
2023/10/08 08:59:12;;;;;;;;;;;;;;;;;;5049772;28;20032;-71
2023/10/08 09:01:38;;;;;;;;;;;;;;;;;;5041086;28;19982;-72
2023/10/08 09:04:07;;;;;;;;;;;;;;;;;;5059478;28;19990;-71
2023/10/08 09:06:33;;;;;;;;;;;;;;;;;;5053162;28;20004;-70
2023/10/08 09:09:13;;;;;;;;;;;;;;;;;;5057430;28;19992;-69
2023/10/08 09:11:41;;;;;;;;;;;;;;;;;;5043601;28;20056;-72
2023/10/08 09:14:07;;;;;;;;;;;;;;;;;;5065075;28;20395;-68
2023/10/08 09:16:33;;;;;;;;;;;;;;;;;;5047954;28;20078;-72
2023/10/08 09:19:01;;;;;;;;;;;;;;;;;;5035044;28;19986;-71
2023/10/08 09:21:27;;;;;;;;;;;;;;;;;;5035060;28;20052;-69
2023/10/08 09:23:54;;;;;;;;;;;;;;;;;;5045031;28;20546;-71
2023/10/08 09:26:20;;;;;;;;;;;;;;;;;;5035091;28;20373;-70
2023/10/08 09:28:49;;;;;;;;;;;;;;;;;;5035352;28;20077;-71
2023/10/08 09:31:17;;;;;;;;;;;;;;;;;;5037323;28;20021;-72
2023/10/08 09:33:43;;;;;;;;;;;;;;;;;;5044293;28;20051;-73
2023/10/08 09:36:18;;;;;;;;;;;;;;;;;;5039800;28;19990;-71
2023/10/08 09:38:44;;;;;;;;;;;;;;;;;;5054775;28;19989;-73
2023/10/08 09:41:10;;;;;;;;;;;;;;;;;;5054805;28;19992;-73
2023/10/08 09:43:36;;;;;;;;;;;;;;;;;;5043683;28;19994;-71
2023/10/08 09:46:05;;;;;;;;;;;;;;;;;;5034406;28;20018;-72
2023/10/08 09:48:31;;;;;;;;;;;;;;;;;;5034899;28;20109;-71
2023/10/08 09:50:57;;;;;;;;;;;;;;;;;;5048841;28;20020;-71
2023/10/08 09:53:24;;;;;;;;;;;;;;;;;;5054463;28;19982;-72
2023/10/08 09:55:51;;;;;;;;;;;;;;;;;;5054104;28;20347;-71
2023/10/08 09:58:17;;;;;;;;;;;;;;;;;;5054661;28;20401;-70
2023/10/08 10:00:44;;;;;;;;;;;;;;;;;;5053502;28;20362;-71
2023/10/08 10:03:12;;;;;;;;;;;;;;;;;;5054233;28;19996;-71
2023/10/08 10:05:38;;;;;;;;;;;;;;;;;;5054450;28;20002;-71
2023/10/08 10:08:05;;;;;;;;;;;;;;;;;;5054241;28;20047;-71
2023/10/08 10:10:31;;;;;;;;;;;;;;;;;;5054454;28;20008;-72
2023/10/08 10:12:59;;;;;;;;;;;;;;;;;;5054228;28;19990;-72
2023/10/08 10:15:25;;;;;;;;;;;;;;;;;;5054164;28;19990;-72
2023/10/08 10:17:50;;;;;;;;;;;;;;;;;;5054627;28;20065;-72
2023/10/08 10:20:16;;;;;;;;;;;;;;;;;;5054155;28;19993;-70
2023/10/08 10:22:43;;;;;;;;;;;;;;;;;;5054012;28;19982;-71
2023/10/08 10:25:17;;;;;;;;;;;;;;;;;;5054165;28;19985;-72
2023/10/08 10:27:43;;;;;;;;;;;;;;;;;;5053242;28;20350;-72
2023/10/08 10:30:09;;;;;;;;;;;;;;;;;;5054248;28;20350;-71
2023/10/08 10:32:35;;;;;;;;;;;;;;;;;;5054027;28;20385;-72
2023/10/08 10:35:03;;;;;;;;;;;;;;;;;;5053916;28;20448;-71
2023/10/08 10:37:40;;;;;;;;;;;;;;;;;;5053914;28;20045;-71
2023/10/08 10:40:10;;;;;;;;;;;;;;;;;;5052686;28;20044;-71
2023/10/08 10:42:42;;;;;;;;;;;;;;;;;;5053871;28;19993;-71
2023/10/08 10:45:10;;;;;;;;;;;;;;;;;;5053914;28;20177;-72
2023/10/08 10:47:45;;;;;;;;;;;;;;;;;;5053411;28;19990;-71
2023/10/08 10:50:26;;;;;;;;;;;;;;;;;;5053536;28;20499;-72
2023/10/08 10:52:52;;;;;;;;;;;;;;;;;;5052413;28;20016;-71
2023/10/08 10:55:20;;;;;;;;;;;;;;;;;;5053498;28;20458;-70
2023/10/08 10:57:54;;;;;;;;;;;;;;;;;;5053433;28;19985;-71
2023/10/08 11:03:02;;;;;;;;;;;;;;;;;;5053329;28;20404;-71
2023/10/08 11:05:31;;;;;;;;;;;;;;;;;;5053134;28;20048;-71
2023/10/08 11:08:06;;;;;;;;;;;;;;;;;;5053139;28;19982;-71
2023/10/08 11:10:32;;;;;;;;;;;;;;;;;;5053138;28;20004;-70
2023/10/08 11:13:00;;;;;;;;;;;;;;;;;;5052943;28;20033;-72
2023/10/08 11:15:37;;;;;;;;;;;;;;;;;;5052916;28;19986;-70
2023/10/08 11:18:03;;;;;;;;;;;;;;;;;;5053154;28;20399;-71
2023/10/08 11:20:32;;;;;;;;;;;;;;;;;;5052859;28;20442;-71
2023/10/08 11:23:17;;;;;;;;;;;;;;;;;;5052930;28;19993;-71
2023/10/08 11:25:43;;;;;;;;;;;;;;;;;;5051555;28;20500;-70
2023/10/08 11:28:11;;;;;;;;;;;;;;;;;;5052944;28;19990;-71
2023/10/08 11:30:42;;;;;;;;;;;;;;;;;;5052600;28;20493;-73
2023/10/08 11:33:11;;;;;;;;;;;;;;;;;;5052878;28;19986;-72
2023/10/08 11:35:51;;;;;;;;;;;;;;;;;;5052787;28;19988;-72
2023/10/08 11:38:22;;;;;;;;;;;;;;;;;;5051524;28;19985;-71
2023/10/08 11:40:56;;;;;;;;;;;;;;;;;;5051538;28;19997;-72
2023/10/08 11:43:22;;;;;;;;;;;;;;;;;;5052859;28;20081;-71
2023/10/08 11:45:48;;;;;;;;;;;;;;;;;;5052304;28;20112;-71
2023/10/08 11:48:17;;;;;;;;;;;;;;;;;;5052616;28;20041;-70
2023/10/08 11:50:43;;;;;;;;;;;;;;;;;;5050973;28;20012;-71
2023/10/08 11:53:11;;;;;;;;;;;;;;;;;;5051090;28;20369;-71
2023/10/08 11:55:38;;;;;;;;;;;;;;;;;;5052529;28;20021;-72
2023/10/08 11:58:10;;;;;;;;;;;;;;;;;;5052215;28;19988;-71
2023/10/08 12:00:43;;;;;;;;;;;;;;;;;;5052290;28;20017;-70
2023/10/08 12:03:10;;;;;;;;;;;;;;;;;;5051119;28;19985;-73
2023/10/08 12:05:38;;;;;;;;;;;;;;;;;;5052037;28;20024;-71
2023/10/08 12:08:08;;;;;;;;;;;;;;;;;;5052449;28;20058;-71
2023/10/08 12:10:34;;;;;;;;;;;;;;;;;;5050726;28;20407;-72
2023/10/08 12:13:00;;;;;;;;;;;;;;;;;;5051931;28;19992;-71
2023/10/08 12:15:38;;;;;;;;;;;;;;;;;;5052036;28;20354;-71
2023/10/08 12:18:24;;;;;;;;;;;;;;;;;;5051873;28;20458;-71
2023/10/08 12:20:50;;;;;;;;;;;;;;;;;;5051915;28;19990;-71
2023/10/08 12:23:25;;;;;;;;;;;;;;;;;;5050438;28;20139;-72
2023/10/08 12:25:51;;;;;;;;;;;;;;;;;;5052158;28;19982;-71
2023/10/08 12:28:18;;;;;;;;;;;;;;;;;;5051875;28;20460;-71
2023/10/08 12:30:44;;;;;;;;;;;;;;;;;;5051648;28;20041;-70
2023/10/08 12:33:12;;;;;;;;;;;;;;;;;;5052066;28;20032;-70
2023/10/08 12:35:38;;;;;;;;;;;;;;;;;;5051783;28;19985;-70
2023/10/08 12:38:05;;;;;;;;;;;;;;;;;;5051843;28;19992;-71
2023/10/08 12:40:42;;;;;;;;;;;;;;;;;;5051374;28;19986;-72
2023/10/08 12:43:07;;;;;;;;;;;;;;;;;;5051432;28;19985;-72
2023/10/08 12:45:33;;;;;;;;;;;;;;;;;;5051448;28;20017;-71
2023/10/08 12:47:59;;;;;;;;;;;;;;;;;;5051456;28;20454;-70
2023/10/08 12:50:42;;;;;;;;;;;;;;;;;;5051284;28;19992;-70
2023/10/08 12:53:08;;;;;;;;;;;;;;;;;;5051346;28;20080;-70
2023/10/08 12:55:39;;;;;;;;;;;;;;;;;;5051865;28;20092;-71
2023/10/08 12:58:09;;;;;;;;;;;;;;;;;;5051385;28;20012;-70
2023/10/08 13:00:37;;;;;;;;;;;;;;;;;;5051421;28;20218;-70
2023/10/08 13:03:05;;;;;;;;;;;;;;;;;;5051185;28;20035;-71
2023/10/08 13:05:33;;;;;;;;;;;;;;;;;;5051809;28;20043;-70
2023/10/08 13:08:09;;;;;;;;;;;;;;;;;;5051341;28;19982;-71
2023/10/08 13:10:35;;;;;;;;;;;;;;;;;;5050107;28;19989;-71
2023/10/08 13:13:01;;;;;;;;;;;;;;;;;;5051424;28;19990;-71
2023/10/08 13:15:27;;;;;;;;;;;;;;;;;;5051651;28;19985;-72
2023/10/08 13:17:53;;;;;;;;;;;;;;;;;;5051310;28;19994;-72
2023/10/08 13:20:21;;;;;;;;;;;;;;;;;;5051104;28;20108;-71
2023/10/08 13:22:47;;;;;;;;;;;;;;;;;;5051324;28;19989;-72
2023/10/08 13:25:13;;;;;;;;;;;;;;;;;;5051516;28;20115;-73
2023/10/08 13:27:39;;;;;;;;;;;;;;;;;;5051352;28;19982;-71
2023/10/08 13:30:06;;;;;;;;;;;;;;;;;;5051231;28;19989;-71
2023/10/08 13:32:32;;;;;;;;;;;;;;;;;;5051403;28;20013;-72
2023/10/08 13:34:58;;;;;;;;;;;;;;;;;;5050229;28;19985;-72
2023/10/08 13:37:24;;;;;;;;;;;;;;;;;;5051262;28;19981;-72
2023/10/08 13:39:50;;;;;;;;;;;;;;;;;;5051058;28;19990;-72
2023/10/08 13:42:20;;;;;;;;;;;;;;;;;;5050683;28;20141;-72
2023/10/08 13:44:46;;;;;;;;;;;;;;;;;;5050741;28;20014;-72
2023/10/08 13:47:15;;;;;;;;;;;;;;;;;;5050787;28;19992;-73
2023/10/08 13:49:42;;;;;;;;;;;;;;;;;;5051198;28;19985;-72
2023/10/08 13:52:08;;;;;;;;;;;;;;;;;;5050894;28;20061;-72
2023/10/08 13:54:39;;;;;;;;;;;;;;;;;;5049556;28;20021;-71
2023/10/08 13:57:08;;;;;;;;;;;;;;;;;;5051265;28;19986;-73
2023/10/08 13:59:34;;;;;;;;;;;;;;;;;;5050965;28;20441;-72
2023/10/08 14:02:02;;;;;;;;;;;;;;;;;;5050496;28;20031;-72
2023/10/08 14:04:30;;;;;;;;;;;;;;;;;;5053487;28;20039;-72
2023/10/08 14:06:58;;;;;;;;;;;;;;;;;;5054651;28;19990;-72
2023/10/08 14:09:36;;;;;;;;;;;;;;;;;;5054332;28;20511;-72
2023/10/08 14:12:02;;;;;;;;;;;;;;;;;;5054241;28;20676;-72
2023/10/08 14:14:33;;;;;;;;;;;;;;;;;;5054120;28;20074;-71
2023/10/08 14:17:08;;;;;;;;;;;;;;;;;;5054015;28;20449;-72
2023/10/08 14:19:46;;;;;;;;;;;;;;;;;;5054109;28;20580;-72
2023/10/08 14:22:14;;;;;;;;;;;;;;;;;;5054183;28;20345;-72
2023/10/08 14:24:40;;;;;;;;;;;;;;;;;;5054148;28;20029;-72
2023/10/08 14:27:14;;;;;;;;;;;;;;;;;;5054002;28;19986;-72
2023/10/08 14:29:40;;;;;;;;;;;;;;;;;;5054093;28;19994;-72
2023/10/08 14:32:08;;;;;;;;;;;;;;;;;;5054100;28;20021;-72
2023/10/08 14:43:02;;;;;;;;;;;;;;;;;;5054121;28;20039;-72
2023/10/08 14:45:31;;;;;;;;;;;;;;;;;;5053414;28;20021;-72
2023/10/08 14:47:56;;;;;;;;;;;;;;;;;;5052356;28;19998;-72
2023/10/08 14:50:22;;;;;;;;;;;;;;;;;;5054025;28;20049;-72
2023/10/08 14:52:48;;;;;;;;;;;;;;;;;;5053536;28;20390;-71
2023/10/08 14:55:15;;;;;;;;;;;;;;;;;;5053522;28;20073;-71
2023/10/08 14:57:42;;;;;;;;;;;;;;;;;;5053307;28;20320;-71
2023/10/08 15:00:08;;;;;;;;;;;;;;;;;;5047476;28;19998;-70
2023/10/08 15:02:34;;;;;;;;;;;;;;;;;;5053163;28;19993;-70
2023/10/08 15:05:05;;;;;;;;;;;;;;;;;;5053171;28;20006;-72
2023/10/08 15:07:31;;;;;;;;;;;;;;;;;;5053449;28;19986;-71
2023/10/08 15:09:57;;;;;;;;;;;;;;;;;;5053323;28;19986;-72
2023/10/08 15:12:25;;;;;;;;;;;;;;;;;;5053040;28;20014;-72
2023/10/08 15:14:51;;;;;;;;;;;;;;;;;;5052777;28;20343;-72
2023/10/08 15:17:17;;;;;;;;;;;;;;;;;;5052845;28;19997;-71
2023/10/08 15:19:43;;;;;;;;;;;;;;;;;;5047694;28;19985;-76
2023/10/08 15:22:09;;;;;;;;;;;;;;;;;;5047848;28;19988;-79
2023/10/08 15:24:36;;;;;;;;;;;;;;;;;;5052953;28;20017;-78
2023/10/08 15:27:04;;;;;;;;;;;;;;;;;;5053854;28;19982;-80
2023/10/08 15:29:31;;;;;;;;;;;;;;;;;;5055339;28;20328;-76
2023/10/08 15:31:57;;;;;;;;;;;;;;;;;;5053869;28;20018;-78
2023/10/08 15:34:23;;;;;;;;;;;;;;;;;;5054184;28;19985;-81
2023/10/08 15:36:49;;;;;;;;;;;;;;;;;;5053346;28;20464;-79
2023/10/08 15:39:24;;;;;;;;;;;;;;;;;;5052861;28;20072;-79
2023/10/08 15:41:50;;;;;;;;;;;;;;;;;;5052190;28;20502;-77
2023/10/08 15:44:17;;;;;;;;;;;;;;;;;;5052624;28;19993;-77
2023/10/08 15:46:43;;;;;;;;;;;;;;;;;;5051935;28;20014;-77
2023/10/08 15:49:09;;;;;;;;;;;;;;;;;;5047921;28;19986;-80
2023/10/08 15:51:37;;;;;;;;;;;;;;;;;;5051488;28;19990;-76
2023/10/08 15:54:03;;;;;;;;;;;;;;;;;;5034417;28;19994;-79
2023/10/08 15:56:29;;;;;;;;;;;;;;;;;;5052222;28;19992;-79
2023/10/08 15:58:55;;;;;;;;;;;;;;;;;;5052029;28;19982;-78
2023/10/08 16:01:21;;;;;;;;;;;;;;;;;;5052863;28;19993;-82
2023/10/08 16:03:47;;;;;;;;;;;;;;;;;;5052863;28;19989;-73
2023/10/08 16:06:13;;;;;;;;;;;;;;;;;;5052088;28;20101;-75
2023/10/08 16:08:39;;;;;;;;;;;;;;;;;;5052066;28;20111;-76
2023/10/08 16:11:05;;;;;;;;;;;;;;;;;;5051995;28;20008;-77
2023/10/08 16:13:31;;;;;;;;;;;;;;;;;;5052129;28;19989;-72
2023/10/08 16:15:58;;;;;;;;;;;;;;;;;;5052076;28;19996;-68
2023/10/08 16:18:24;;;;;;;;;;;;;;;;;;5052155;28;20021;-77
2023/10/08 16:20:52;;;;;;;;;;;;;;;;;;5051844;28;20099;-80
2023/10/08 16:23:18;;;;;;;;;;;;;;;;;;5050801;28;19986;-78
2023/10/08 16:25:44;;;;;;;;;;;;;;;;;;5051410;28;20068;-82
2023/10/08 16:28:11;;;;;;;;;;;;;;;;;;5050188;28;20093;-79
2023/10/08 16:30:51;;;;;;;;;;;;;;;;;;5041049;28;20492;-80
2023/10/08 16:33:17;;;;;;;;;;;;;;;;;;5051554;28;19993;-78
2023/10/08 16:35:50;;;;;;;;;;;;;;;;;;5065358;28;20020;-79
2023/10/08 16:38:25;;;;;;;;;;;;;;;;;;5071424;28;19992;-79
2023/10/08 16:40:51;;;;;;;;;;;;;;;;;;5072476;28;20080;-81
2023/10/08 16:43:17;;;;;;;;;;;;;;;;;;5071599;28;20427;-80
2023/10/08 16:45:43;;;;;;;;;;;;;;;;;;5071129;28;20017;-80
2023/10/08 16:48:10;;;;;;;;;;;;;;;;;;5076152;28;20036;-81
2023/10/08 16:50:36;;;;;;;;;;;;;;;;;;5073842;28;20096;-80
2023/10/08 16:53:02;;;;;;;;;;;;;;;;;;5074297;28;19990;-81
2023/10/08 16:55:28;;;;;;;;;;;;;;;;;;5073240;28;20373;-80
2023/10/08 16:57:56;;;;;;;;;;;;;;;;;;5066157;28;19997;-73
2023/10/08 17:00:23;;;;;;;;;;;;;;;;;;5038789;28;19990;-63
2023/10/08 17:02:49;;;;;;;;;;;;;;;;;;5030649;28;20101;-63
2023/10/08 17:05:15;;;;;;;;;;;;;;;;;;5036149;28;20002;-66
2023/10/08 17:07:41;;;;;;;;;;;;;;;;;;5050856;28;20093;-67
2023/10/08 17:10:07;;;;;;;;;;;;;;;;;;5041230;28;20017;-66
2023/10/08 17:12:36;;;;;;;;;;;;;;;;;;5033912;28;20017;-66
2023/10/08 17:15:05;;;;;;;;;;;;;;;;;;5035153;28;20080;-67
2023/10/08 17:17:31;;;;;;;;;;;;;;;;;;5035070;28;19991;-67
2023/10/08 17:19:57;;;;;;;;;;;;;;;;;;5034570;28;19994;-67
2023/10/08 17:22:24;;;;;;;;;;;;;;;;;;5033683;28;20047;-65
2023/10/08 17:24:50;;;;;;;;;;;;;;;;;;5036526;28;19982;-65
2023/10/08 17:27:16;;;;;;;;;;;;;;;;;;5047240;28;19989;-67
2023/10/08 17:29:42;;;;;;;;;;;;;;;;;;5043462;28;19990;-67
2023/10/08 17:32:08;;;;;;;;;;;;;;;;;;5034267;28;20033;-67
2023/10/08 17:34:35;;;;;;;;;;;;;;;;;;5042291;28;20025;-67
2023/10/08 17:37:01;;;;;;;;;;;;;;;;;;5040887;28;20656;-68
2023/10/08 17:39:27;;;;;;;;;;;;;;;;;;5046943;28;19991;-67
2023/10/08 17:41:53;;;;;;;;;;;;;;;;;;5053375;28;20438;-66
2023/10/08 17:44:22;;;;;;;;;;;;;;;;;;5048278;28;19985;-67
2023/10/08 17:46:48;;;;;;;;;;;;;;;;;;5041884;28;19998;-67
2023/10/08 17:49:14;;;;;;;;;;;;;;;;;;5034468;28;20450;-65
2023/10/08 17:51:40;;;;;;;;;;;;;;;;;;5034207;28;20017;-67
2023/10/08 17:54:09;;;;;;;;;;;;;;;;;;5041935;28;19992;-67
2023/10/08 17:56:36;;;;;;;;;;;;;;;;;;5052501;28;19996;-67
2023/10/08 17:59:02;;;;;;;;;;;;;;;;;;5052047;28;20029;-67
2023/10/08 18:01:33;;;;;;;;;;;;;;;;;;5049870;28;20044;-66
2023/10/08 18:03:59;;;;;;;;;;;;;;;;;;5053890;28;19989;-67